Time;durP1;ratioP1;P1;durP2;ratioP2;P2;SDS_P1;SDS_P2;PMS_P1;PMS_P2;Temp;Humidity;BMP_temperature;BMP_pressure;BME280_temperature;BME280_humidity;BME280_pressure;Samples;Min_cycle;Max_cycle;Signal;HPM_P1;HPM_P2
2023/06/27 00:01:42;;;;;;;1999.90;999.90;;;19.70;80.30;;;;;;5033940;28;20480;-79
2023/06/27 00:04:08;;;;;;;1999.90;999.90;;;19.60;80.60;;;;;;5034172;28;20034;-79
2023/06/27 00:06:40;;;;;;;1999.90;999.90;;;19.60;81.30;;;;;;5035042;28;20030;-79
2023/06/27 00:09:10;;;;;;;1999.90;999.90;;;19.60;80.60;;;;;;5035363;28;20061;-79
2023/06/27 00:11:39;;;;;;;1999.90;999.90;;;19.60;80.80;;;;;;5037510;28;20042;-79
2023/06/27 00:14:07;;;;;;;1999.90;999.90;;;19.60;80.70;;;;;;5039350;28;20037;-79
2023/06/27 00:16:32;;;;;;;1999.90;999.90;;;19.60;81.00;;;;;;5039747;28;20530;-78
2023/06/27 00:19:03;;;;;;;1999.90;999.90;;;19.60;81.00;;;;;;5037352;28;20034;-78
2023/06/27 00:21:35;;;;;;;1999.90;999.90;;;19.60;81.70;;;;;;5037033;28;20479;-78
2023/06/27 00:24:03;;;;;;;1999.90;999.90;;;19.60;80.70;;;;;;5038734;28;20034;-78
2023/06/27 00:26:29;;;;;;;1999.90;999.90;;;19.60;80.30;;;;;;5037873;28;20038;-78
2023/06/27 00:28:55;;;;;;;1999.90;999.90;;;19.60;80.20;;;;;;5038020;28;20080;-78
2023/06/27 00:31:21;;;;;;;1999.90;999.90;;;19.70;80.50;;;;;;5036591;28;20038;-78
2023/06/27 00:33:47;;;;;;;1999.90;999.90;;;19.60;80.50;;;;;;5036687;28;20041;-79
2023/06/27 00:36:14;;;;;;;1999.90;999.90;;;19.60;80.20;;;;;;5036495;28;20038;-79
2023/06/27 00:38:40;;;;;;;1999.90;999.90;;;19.60;80.40;;;;;;5037727;28;20034;-79
2023/06/27 00:41:05;;;;;;;1999.90;999.90;;;19.60;80.80;;;;;;5036048;28;20026;-79
2023/06/27 00:43:31;;;;;;;1999.90;999.90;;;19.60;80.90;;;;;;5037773;28;20038;-79
2023/06/27 00:45:58;;;;;;;1999.90;999.90;;;19.50;80.60;;;;;;5037444;28;20037;-79
2023/06/27 00:48:23;;;;;;;1999.90;999.90;;;19.50;80.60;;;;;;5036204;28;20026;-78
2023/06/27 00:50:55;;;;;;;1999.90;999.90;;;19.60;81.00;;;;;;5036517;28;20037;-79
2023/06/27 00:53:21;;;;;;;1999.90;999.90;;;19.50;80.90;;;;;;5037725;28;20026;-79
2023/06/27 00:55:47;;;;;;;1999.90;999.90;;;19.50;81.00;;;;;;5037041;28;20506;-79
2023/06/27 00:58:13;;;;;;;1999.90;999.90;;;19.50;80.70;;;;;;5037457;28;20041;-80
2023/06/27 01:00:38;;;;;;;1999.90;999.90;;;19.50;81.30;;;;;;5035700;28;20040;-79
2023/06/27 01:03:04;;;;;;;1999.90;999.90;;;19.40;81.50;;;;;;5036638;28;20041;-78
2023/06/27 01:05:30;;;;;;;1999.90;999.90;;;19.40;82.20;;;;;;5035575;28;20036;-79
2023/06/27 01:08:10;;;;;;;1999.90;999.90;;;19.40;82.50;;;;;;5035795;28;20081;-78
2023/06/27 01:10:46;;;;;;;1999.90;999.90;;;19.30;83.20;;;;;;5036880;28;20559;-79
2023/06/27 01:13:29;;;;;;;1999.90;999.90;;;19.30;83.20;;;;;;5035126;28;20041;-79
2023/06/27 01:15:56;;;;;;;1999.90;999.90;;;19.20;83.50;;;;;;5035942;28;20104;-79
2023/06/27 01:18:25;;;;;;;1999.90;999.90;;;19.10;83.30;;;;;;5035428;28;20124;-78
2023/06/27 01:20:51;;;;;;;1999.90;999.90;;;19.10;84.40;;;;;;5035903;28;20166;-78
2023/06/27 01:23:58;;;;;;;1999.90;999.90;;;19.00;83.90;;;;;;5035900;28;20038;-78
2023/06/27 01:26:23;;;;;;;1999.90;999.90;;;19.00;84.30;;;;;;4996561;28;20045;-78
2023/06/27 01:28:49;;;;;;;1999.90;999.90;;;19.00;84.40;;;;;;5036942;28;20104;-78
2023/06/27 01:31:23;;;;;;;1999.90;999.90;;;19.00;85.40;;;;;;5036633;28;20060;-79
2023/06/27 01:33:56;;;;;;;1999.90;999.90;;;19.00;85.50;;;;;;5035665;28;20053;-78
2023/06/27 01:36:42;;;;;;;1999.90;999.90;;;19.00;84.70;;;;;;5036806;28;20036;-79
2023/06/27 01:39:16;;;;;;;1999.90;999.90;;;19.00;84.60;;;;;;5037146;28;20030;-79
2023/06/27 01:41:47;;;;;;;1999.90;999.90;;;19.00;84.70;;;;;;5036525;28;20044;-79
2023/06/27 01:44:14;;;;;;;1999.90;999.90;;;18.90;84.70;;;;;;5036881;28;20040;-79
2023/06/27 01:46:40;;;;;;;1999.90;999.90;;;18.90;84.70;;;;;;5036921;28;20034;-80
2023/06/27 01:49:07;;;;;;;1999.90;999.90;;;18.90;84.90;;;;;;5036773;28;20037;-80
2023/06/27 01:51:33;;;;;;;1999.90;999.90;;;18.90;85.00;;;;;;5036339;28;20034;-79
2023/06/27 01:53:58;;;;;;;1999.90;999.90;;;18.90;85.80;;;;;;5036631;28;20403;-80
2023/06/27 01:56:24;;;;;;;1999.90;999.90;;;18.90;86.10;;;;;;5035847;28;20046;-78
2023/06/27 01:58:50;;;;;;;1999.90;999.90;;;18.80;86.40;;;;;;5035417;28;20030;-79
2023/06/27 02:01:16;;;;;;;1999.90;999.90;;;18.80;85.60;;;;;;5036078;28;20056;-79
2023/06/27 02:03:41;;;;;;;1999.90;999.90;;;18.80;86.10;;;;;;5036015;28;20064;-79
2023/06/27 02:06:07;;;;;;;1999.90;999.90;;;18.80;85.50;;;;;;5034272;28;20088;-80
2023/06/27 02:08:32;;;;;;;1999.90;999.90;;;18.90;84.20;;;;;;5034314;28;20092;-78
2023/06/27 02:10:58;;;;;;;1999.90;999.90;;;18.90;84.10;;;;;;5035298;28;20030;-78
2023/06/27 02:13:26;;;;;;;1999.90;999.90;;;18.90;83.80;;;;;;5035518;28;20101;-79
2023/06/27 02:15:51;;;;;;;1999.90;999.90;;;18.90;83.50;;;;;;5035755;28;20045;-77
2023/06/27 02:18:17;;;;;;;1999.90;999.90;;;19.00;83.20;;;;;;5035791;28;20377;-78
2023/06/27 02:20:42;;;;;;;1999.90;999.90;;;19.00;82.80;;;;;;5036116;28;20112;-78
2023/06/27 02:23:08;;;;;;;1999.90;999.90;;;18.90;82.70;;;;;;5035953;28;20469;-79
2023/06/27 02:25:33;;;;;;;1999.90;999.90;;;18.90;83.50;;;;;;5035483;28;20496;-79
2023/06/27 02:27:59;;;;;;;1999.90;999.90;;;18.90;83.20;;;;;;5035746;28;20033;-79
2023/06/27 02:30:24;;;;;;;1999.90;999.90;;;18.80;83.30;;;;;;5034535;28;20034;-78
2023/06/27 02:32:50;;;;;;;1999.90;999.90;;;18.70;84.70;;;;;;5035358;28;20034;-79
2023/06/27 02:35:16;;;;;;;1999.90;999.90;;;18.60;84.50;;;;;;5034174;28;20080;-79
2023/06/27 02:37:42;;;;;;;1999.90;999.90;;;18.50;86.10;;;;;;5036087;28;20087;-79
2023/06/27 02:40:08;;;;;;;1999.90;999.90;;;18.30;86.00;;;;;;5036260;28;20076;-78
2023/06/27 02:42:34;;;;;;;1999.90;999.90;;;18.30;85.90;;;;;;5035746;28;20033;-79
2023/06/27 02:44:59;;;;;;;1999.90;999.90;;;18.20;84.80;;;;;;5034114;28;20034;-78
2023/06/27 02:47:25;;;;;;;1999.90;999.90;;;18.20;85.20;;;;;;5033831;28;20036;-79
2023/06/27 02:49:50;;;;;;;1999.90;999.90;;;18.10;85.00;;;;;;5035618;28;20057;-79
2023/06/27 02:52:16;;;;;;;1999.90;999.90;;;17.90;86.00;;;;;;5035158;28;20038;-78
2023/06/27 02:54:41;;;;;;;1999.90;999.90;;;17.80;85.60;;;;;;5035287;28;20042;-78
2023/06/27 02:57:07;;;;;;;1999.90;999.90;;;17.80;89.40;;;;;;5035123;28;20038;-79
2023/06/27 02:59:32;;;;;;;1999.90;999.90;;;17.70;88.90;;;;;;5034132;28;20033;-79
2023/06/27 03:01:58;;;;;;;1999.90;999.90;;;17.60;86.60;;;;;;5035232;28;20046;-79
2023/06/27 03:04:24;;;;;;;1999.90;999.90;;;17.60;87.70;;;;;;5035411;28;20034;-78
2023/06/27 03:06:50;;;;;;;1999.90;999.90;;;17.50;87.60;;;;;;5035329;28;20042;-79
2023/06/27 03:09:17;;;;;;;1999.90;999.90;;;17.50;88.60;;;;;;5035324;28;20085;-79
2023/06/27 03:11:43;;;;;;;1999.90;999.90;;;17.50;90.20;;;;;;5034866;28;20033;-78
2023/06/27 03:14:08;;;;;;;1999.90;999.90;;;17.50;90.00;;;;;;5035075;28;20033;-78
2023/06/27 03:16:34;;;;;;;1999.90;999.90;;;17.60;90.20;;;;;;5034244;28;20050;-79
2023/06/27 03:19:00;;;;;;;1999.90;999.90;;;17.50;90.00;;;;;;5034844;28;20436;-78
2023/06/27 03:21:25;;;;;;;1999.90;999.90;;;17.60;90.50;;;;;;5034472;28;20046;-78
2023/06/27 03:23:51;;;;;;;1999.90;999.90;;;17.60;90.00;;;;;;5034655;28;20495;-78
2023/06/27 03:26:16;;;;;;;1999.90;999.90;;;17.60;90.70;;;;;;5034942;28;20624;-78
2023/06/27 03:28:42;;;;;;;1999.90;999.90;;;17.60;90.70;;;;;;5035382;28;20396;-78
2023/06/27 03:31:07;;;;;;;1999.90;999.90;;;17.70;91.80;;;;;;5034878;28;20045;-79
2023/06/27 03:33:33;;;;;;;1999.90;999.90;;;17.70;90.50;;;;;;5034137;28;20117;-78
2023/06/27 03:35:58;;;;;;;1999.90;999.90;;;17.50;90.80;;;;;;5034783;28;20038;-80
2023/06/27 03:38:24;;;;;;;1999.90;999.90;;;17.80;90.20;;;;;;5035380;28;20034;-78
2023/06/27 03:40:49;;;;;;;1999.90;999.90;;;17.70;90.70;;;;;;5035166;28;20484;-79
2023/06/27 03:43:15;;;;;;;1999.90;999.90;;;17.60;90.60;;;;;;5033589;28;20805;-78
2023/06/27 03:45:41;;;;;;;1999.90;999.90;;;17.60;90.90;;;;;;5038998;28;20038;-78
2023/06/27 03:48:07;;;;;;;1999.90;999.90;;;17.60;90.10;;;;;;5039071;28;20062;-79
2023/06/27 03:50:33;;;;;;;1999.90;999.90;;;17.60;90.50;;;;;;5037709;28;20053;-79
2023/06/27 03:53:02;;;;;;;1999.90;999.90;;;17.60;90.50;;;;;;5037233;28;20030;-79
2023/06/27 03:55:28;;;;;;;1999.90;999.90;;;17.70;90.10;;;;;;5038665;28;20818;-78
2023/06/27 03:57:53;;;;;;;1999.90;999.90;;;17.60;90.20;;;;;;5054069;28;20038;-78
2023/06/27 04:00:19;;;;;;;1999.90;999.90;;;17.70;90.20;;;;;;5059215;28;20034;-79
2023/06/27 04:02:44;;;;;;;1999.90;999.90;;;17.70;90.30;;;;;;5058628;28;20034;-79
2023/06/27 04:05:10;;;;;;;1999.90;999.90;;;17.80;90.40;;;;;;5057340;28;20029;-79
2023/06/27 04:07:36;;;;;;;1999.90;999.90;;;17.80;89.60;;;;;;5057007;28;20125;-79
2023/06/27 04:10:01;;;;;;;1999.90;999.90;;;17.80;90.00;;;;;;5056855;28;20037;-79
2023/06/27 04:12:27;;;;;;;1999.90;999.90;;;17.80;90.10;;;;;;5056674;28;20030;-78
2023/06/27 04:14:52;;;;;;;1999.90;999.90;;;17.80;91.00;;;;;;5058164;28;20516;-79
2023/06/27 04:17:18;;;;;;;1999.90;999.90;;;17.90;90.20;;;;;;5058198;28;20140;-78
2023/06/27 04:19:43;;;;;;;1999.90;999.90;;;18.10;90.20;;;;;;5058206;28;20108;-79
2023/06/27 04:22:09;;;;;;;1999.90;999.90;;;18.00;90.20;;;;;;5056338;28;20043;-78
2023/06/27 04:24:34;;;;;;;1999.90;999.90;;;18.00;90.50;;;;;;5057864;28;20043;-79
2023/06/27 04:27:00;;;;;;;1999.90;999.90;;;18.00;90.30;;;;;;5057540;28;20037;-78
2023/06/27 04:29:25;;;;;;;1999.90;999.90;;;18.00;90.00;;;;;;5057522;28;20408;-79
2023/06/27 04:31:51;;;;;;;1999.90;999.90;;;18.00;90.00;;;;;;5057567;28;20038;-79
2023/06/27 04:34:16;;;;;;;1999.90;999.90;;;17.90;90.70;;;;;;5057458;28;20037;-78
2023/06/27 04:36:42;;;;;;;1999.90;999.90;;;17.90;89.90;;;;;;5057514;28;20084;-78
2023/06/27 04:39:09;;;;;;;1999.90;999.90;;;17.90;90.50;;;;;;5056322;28;20030;-79
2023/06/27 04:41:34;;;;;;;1999.90;999.90;;;17.90;90.50;;;;;;5056056;28;20470;-79
2023/06/27 04:44:00;;;;;;;1999.90;999.90;;;18.00;90.70;;;;;;5057560;28;20038;-78
2023/06/27 04:46:28;;;;;;;1999.90;999.90;;;18.10;90.70;;;;;;5057109;28;20036;-78
2023/06/27 04:48:56;;;;;;;1999.90;999.90;;;18.00;90.20;;;;;;5057736;28;20034;-79
2023/06/27 04:51:24;;;;;;;1999.90;999.90;;;18.00;90.00;;;;;;5055407;28;20037;-77
2023/06/27 04:53:50;;;;;;;1999.90;999.90;;;18.10;90.20;;;;;;5051372;28;20465;-76
2023/06/27 04:56:15;;;;;;;1999.90;999.90;;;18.10;90.50;;;;;;5036493;28;20077;-76
2023/06/27 04:58:41;;;;;;;1999.90;999.90;;;18.00;90.80;;;;;;5038518;28;20411;-78
2023/06/27 05:01:06;;;;;;;1999.90;999.90;;;18.10;90.50;;;;;;5039143;28;20034;-78
2023/06/27 05:03:32;;;;;;;1999.90;999.90;;;18.00;90.90;;;;;;5039656;28;20041;-78
2023/06/27 05:05:58;;;;;;;1999.90;999.90;;;18.10;90.80;;;;;;5039762;28;20038;-78
2023/06/27 05:08:23;;;;;;;1999.90;999.90;;;18.20;91.50;;;;;;5039256;28;20562;-78
2023/06/27 05:10:49;;;;;;;1999.90;999.90;;;18.20;91.40;;;;;;5035990;28;20041;-78
2023/06/27 05:13:14;;;;;;;1999.90;999.90;;;18.30;90.80;;;;;;5034867;28;20049;-78
2023/06/27 05:15:40;;;;;;;1999.90;999.90;;;18.30;90.70;;;;;;5036329;28;20087;-78
2023/06/27 05:18:08;;;;;;;1999.90;999.90;;;18.40;91.10;;;;;;5038453;28;20120;-78
2023/06/27 05:20:37;;;;;;;1999.90;999.90;;;18.50;90.60;;;;;;5042143;28;20062;-78
2023/06/27 05:23:03;;;;;;;1999.90;999.90;;;18.60;91.10;;;;;;5042621;28;20100;-78
2023/06/27 05:25:30;;;;;;;1999.90;999.90;;;18.70;90.90;;;;;;5042689;28;20117;-78
2023/06/27 05:27:55;;;;;;;1999.90;999.90;;;18.70;90.40;;;;;;5044462;28;20042;-78
2023/06/27 05:30:21;;;;;;;1999.90;999.90;;;18.70;90.30;;;;;;5045262;28;20092;-78
2023/06/27 05:32:46;;;;;;;1999.90;999.90;;;18.90;90.30;;;;;;5042719;28;20026;-78
2023/06/27 05:35:12;;;;;;;1999.90;999.90;;;19.00;90.00;;;;;;5042890;28;20034;-79
2023/06/27 05:37:37;;;;;;;1999.90;999.90;;;19.10;89.60;;;;;;5039225;28;20499;-78
2023/06/27 05:40:03;;;;;;;1999.90;999.90;;;19.10;87.50;;;;;;5042784;28;20053;-78
2023/06/27 05:42:29;;;;;;;1999.90;999.90;;;19.10;87.50;;;;;;5035747;28;20030;-75
2023/06/27 05:44:54;;;;;;;1999.90;999.90;;;19.10;87.40;;;;;;5036024;28;20484;-75
2023/06/27 05:47:20;;;;;;;1999.90;999.90;;;19.20;87.00;;;;;;5035999;28;20045;-75
2023/06/27 05:49:45;;;;;;;1999.90;999.90;;;19.30;86.90;;;;;;5036131;28;20493;-76
2023/06/27 05:52:11;;;;;;;1999.90;999.90;;;19.40;86.20;;;;;;5035402;28;20495;-75
2023/06/27 05:54:36;;;;;;;1999.90;999.90;;;19.50;85.50;;;;;;5034546;28;20038;-75
2023/06/27 05:57:02;;;;;;;1999.90;999.90;;;19.70;84.40;;;;;;5035771;28;20501;-75
2023/06/27 05:59:27;;;;;;;1999.90;999.90;;;19.80;83.60;;;;;;5034446;28;20040;-75
2023/06/27 06:01:53;;;;;;;1999.90;999.90;;;20.00;83.30;;;;;;5035907;28;20038;-74
2023/06/27 06:04:19;;;;;;;1999.90;999.90;;;20.10;81.30;;;;;;5035915;28;20026;-75
2023/06/27 06:06:46;;;;;;;1999.90;999.90;;;20.30;81.40;;;;;;5033724;28;20034;-77
2023/06/27 06:09:12;;;;;;;1999.90;999.90;;;20.40;81.90;;;;;;5034514;28;20037;-75
2023/06/27 06:11:37;;;;;;;1999.90;999.90;;;20.50;81.30;;;;;;5035390;28;20038;-75
2023/06/27 06:14:04;;;;;;;1999.90;999.90;;;20.40;83.60;;;;;;5034292;28;20036;-75
2023/06/27 06:16:33;;;;;;;1999.90;999.90;;;20.40;80.60;;;;;;5035510;28;20046;-74
2023/06/27 06:19:03;;;;;;;1999.90;999.90;;;20.40;81.10;;;;;;5035359;28;20121;-75
2023/06/27 06:21:29;;;;;;;1999.90;999.90;;;20.50;79.90;;;;;;5035220;28;20431;-75
2023/06/27 06:23:56;;;;;;;1999.90;999.90;;;20.30;79.40;;;;;;5035355;28;20467;-74
2023/06/27 06:26:21;;;;;;;1999.90;999.90;;;20.40;80.20;;;;;;5034980;28;20452;-75
2023/06/27 06:28:47;;;;;;;1999.90;999.90;;;20.20;79.90;;;;;;5034047;28;20034;-76
2023/06/27 06:31:16;;;;;;;1999.90;999.90;;;20.10;81.80;;;;;;5035170;28;20129;-77
2023/06/27 06:33:44;;;;;;;1999.90;999.90;;;20.10;81.10;;;;;;5035342;28;20089;-78
2023/06/27 06:36:10;;;;;;;1999.90;999.90;;;20.00;81.60;;;;;;5034832;28;20052;-78
2023/06/27 06:38:35;;;;;;;1999.90;999.90;;;20.00;82.20;;;;;;5033683;28;20121;-78
2023/06/27 06:41:02;;;;;;;1999.90;999.90;;;20.10;83.60;;;;;;5034366;28;20038;-78
2023/06/27 06:43:27;;;;;;;1999.90;999.90;;;20.30;80.90;;;;;;5033083;28;20036;-78
2023/06/27 06:45:53;;;;;;;1999.90;999.90;;;20.50;79.80;;;;;;5034908;28;20030;-78
2023/06/27 06:48:19;;;;;;;1999.90;999.90;;;20.70;80.00;;;;;;5035058;28;20069;-78
2023/06/27 06:50:45;;;;;;;1999.90;999.90;;;20.90;79.60;;;;;;5033877;28;20037;-78
2023/06/27 06:53:11;;;;;;;1999.90;999.90;;;20.80;78.60;;;;;;5035261;28;20582;-78
2023/06/27 06:55:36;;;;;;;1999.90;999.90;;;20.70;79.10;;;;;;5034913;28;20117;-78
2023/06/27 06:58:02;;;;;;;1999.90;999.90;;;20.70;80.10;;;;;;5034861;28;20488;-78
2023/06/27 07:00:27;;;;;;;1999.90;999.90;;;20.90;79.10;;;;;;5035038;28;20076;-78
2023/06/27 07:02:54;;;;;;;1999.90;999.90;;;20.80;79.90;;;;;;5034816;28;20391;-78
2023/06/27 07:05:19;;;;;;;1999.90;999.90;;;21.00;77.80;;;;;;5035034;28;20045;-78
2023/06/27 07:07:45;;;;;;;1999.90;999.90;;;20.80;75.80;;;;;;5034935;28;20037;-78
2023/06/27 07:10:10;;;;;;;1999.90;999.90;;;20.80;76.90;;;;;;5034807;28;20158;-78
2023/06/27 07:12:36;;;;;;;1999.90;999.90;;;20.70;78.40;;;;;;5034633;28;20033;-78
2023/06/27 07:15:02;;;;;;;1999.90;999.90;;;20.40;79.20;;;;;;5034910;28;20469;-78
2023/06/27 07:17:27;;;;;;;1999.90;999.90;;;20.50;78.00;;;;;;5032768;28;20042;-78
2023/06/27 07:19:53;;;;;;;1999.90;999.90;;;20.50;79.00;;;;;;5034651;28;20124;-78
2023/06/27 07:22:19;;;;;;;1999.90;999.90;;;20.40;79.70;;;;;;5034279;28;20377;-78
2023/06/27 07:24:44;;;;;;;1999.90;999.90;;;20.40;80.20;;;;;;5034464;28;20041;-78
2023/06/27 07:27:10;;;;;;;1999.90;999.90;;;20.40;80.00;;;;;;5034702;28;20038;-76
2023/06/27 07:29:36;;;;;;;1999.90;999.90;;;20.40;80.80;;;;;;5036715;28;20058;-80
2023/06/27 07:32:02;;;;;;;1999.90;999.90;;;20.50;81.20;;;;;;5038545;28;20038;-78
2023/06/27 07:34:27;;;;;;;1999.90;999.90;;;20.60;79.20;;;;;;5039919;28;20034;-78
2023/06/27 07:36:53;;;;;;;1999.90;999.90;;;20.60;78.10;;;;;;5042451;28;20049;-78
2023/06/27 07:39:18;;;;;;;1999.90;999.90;;;20.90;77.70;;;;;;5035434;28;20026;-77
2023/06/27 07:41:44;;;;;;;1999.90;999.90;;;20.90;77.10;;;;;;5034858;28;20030;-77
2023/06/27 07:44:10;;;;;;;1999.90;999.90;;;21.20;78.00;;;;;;5038280;28;20030;-77
2023/06/27 07:46:35;;;;;;;1999.90;999.90;;;21.40;76.60;;;;;;5054895;28;20069;-77
2023/06/27 07:49:02;;;;;;;1999.90;999.90;;;21.60;75.50;;;;;;5053476;28;20080;-78
2023/06/27 07:51:27;;;;;;;1999.90;999.90;;;21.80;75.20;;;;;;5054130;28;20112;-77
2023/06/27 07:53:54;;;;;;;1999.90;999.90;;;21.80;74.70;;;;;;5054213;28;20353;-77
2023/06/27 07:56:20;;;;;;;1999.90;999.90;;;22.00;75.90;;;;;;5059619;28;20041;-77
2023/06/27 07:58:46;;;;;;;1999.90;999.90;;;21.60;75.30;;;;;;5060869;28;20029;-78
2023/06/27 08:01:11;;;;;;;1999.90;999.90;;;21.70;73.70;;;;;;5061464;28;20394;-78
2023/06/27 08:03:37;;;;;;;1999.90;999.90;;;22.00;74.30;;;;;;5064434;28;20033;-78
2023/06/27 08:06:04;;;;;;;1999.90;999.90;;;22.10;72.20;;;;;;5055940;28;20093;-77
2023/06/27 08:08:29;;;;;;;1999.90;999.90;;;21.80;70.40;;;;;;5054628;28;20117;-77
2023/06/27 08:10:58;;;;;;;1999.90;999.90;;;21.80;70.90;;;;;;5053651;28;20124;-77
2023/06/27 08:13:24;;;;;;;1999.90;999.90;;;22.00;71.40;;;;;;5055105;28;20029;-77
2023/06/27 08:15:50;;;;;;;1999.90;999.90;;;22.30;72.50;;;;;;5056846;28;20042;-77
2023/06/27 08:18:16;;;;;;;1999.90;999.90;;;22.70;68.60;;;;;;5057632;28;20141;-77
2023/06/27 08:20:42;;;;;;;1999.90;999.90;;;23.00;69.20;;;;;;5059756;28;20395;-78
2023/06/27 08:23:08;;;;;;;1999.90;999.90;;;23.10;68.60;;;;;;5059381;28;20049;-78
2023/06/27 08:25:35;;;;;;;1999.90;999.90;;;23.20;66.20;;;;;;5058666;28;20045;-78
2023/06/27 08:28:01;;;;;;;1999.90;999.90;;;23.30;65.60;;;;;;5057624;28;20033;-77
2023/06/27 08:30:27;;;;;;;1999.90;999.90;;;23.20;64.80;;;;;;5060407;28;20030;-78
2023/06/27 08:32:54;;;;;;;1999.90;999.90;;;23.30;65.30;;;;;;5063196;28;20030;-79
2023/06/27 08:35:20;;;;;;;1999.90;999.90;;;23.50;66.20;;;;;;5062212;28;20029;-78
2023/06/27 08:37:46;;;;;;;1999.90;999.90;;;23.40;68.00;;;;;;5061958;28;20033;-78
2023/06/27 08:40:20;;;;;;;1999.90;999.90;;;23.60;66.90;;;;;;5061555;28;20107;-78
2023/06/27 08:42:46;;;;;;;1999.90;999.90;;;23.90;66.70;;;;;;5064419;28;20466;-78
2023/06/27 08:45:12;;;;;;;1999.90;999.90;;;23.80;69.10;;;;;;5061598;28;20040;-76
2023/06/27 08:47:41;;;;;;;1999.90;999.90;;;23.90;65.30;;;;;;5062526;28;20030;-79
2023/06/27 08:50:08;;;;;;;1999.90;999.90;;;24.40;65.10;;;;;;5057213;28;20034;-77
2023/06/27 08:52:40;;;;;;;1999.90;999.90;;;24.80;64.60;;;;;;5056436;28;20033;-78
2023/06/27 08:55:12;;;;;;;1999.90;999.90;;;24.80;64.60;;;;;;5046167;28;20064;-78
2023/06/27 08:57:38;;;;;;;1999.90;999.90;;;25.10;62.30;;;;;;5036591;28;20038;-78
2023/06/27 09:00:11;;;;;;;1999.90;999.90;;;24.50;64.90;;;;;;5036650;28;20085;-78
2023/06/27 09:02:38;;;;;;;1999.90;999.90;;;24.40;66.10;;;;;;5035281;28;20531;-78
2023/06/27 09:05:05;;;;;;;1999.90;999.90;;;24.60;62.70;;;;;;5037085;28;20041;-78
2023/06/27 09:07:33;;;;;;;1999.90;999.90;;;24.70;64.20;;;;;;5035086;28;20041;-78
2023/06/27 09:09:59;;;;;;;1999.90;999.90;;;24.90;62.50;;;;;;5036831;28;20040;-78
2023/06/27 09:12:27;;;;;;;1999.90;999.90;;;25.10;61.00;;;;;;5035047;28;20484;-78
2023/06/27 09:14:53;;;;;;;1999.90;999.90;;;25.40;62.10;;;;;;5036664;28;20033;-78
2023/06/27 09:17:19;;;;;;;1999.90;999.90;;;25.40;60.00;;;;;;5044114;28;20046;-77
2023/06/27 09:19:44;;;;;;;1999.90;999.90;;;25.10;62.00;;;;;;5056699;28;20060;-77
2023/06/27 09:22:10;;;;;;;1999.90;999.90;;;25.40;62.00;;;;;;5042430;28;20041;-79
2023/06/27 09:24:40;;;;;;;1999.90;999.90;;;25.50;61.30;;;;;;5039311;28;20030;-80
2023/06/27 09:27:07;;;;;;;1999.90;999.90;;;25.40;60.80;;;;;;5040612;28;20124;-80
2023/06/27 09:29:35;;;;;;;1999.90;999.90;;;25.30;59.30;;;;;;5039392;28;20026;-80
2023/06/27 09:32:08;;;;;;;1999.90;999.90;;;25.00;60.10;;;;;;5039630;28;20484;-80
2023/06/27 09:34:37;;;;;;;1999.90;999.90;;;24.90;59.60;;;;;;5038696;28;20105;-80
2023/06/27 09:37:03;;;;;;;1999.90;999.90;;;24.70;59.20;;;;;;5040046;28;20045;-80
2023/06/27 09:39:28;;;;;;;1999.90;999.90;;;24.80;58.80;;;;;;5038514;28;20072;-79
2023/06/27 09:41:54;;;;;;;1999.90;999.90;;;25.50;59.80;;;;;;5044277;28;20038;-80
2023/06/27 09:44:22;;;;;;;1999.90;999.90;;;25.40;57.60;;;;;;5037555;28;20045;-80
2023/06/27 09:46:49;;;;;;;1999.90;999.90;;;25.80;58.50;;;;;;5038465;28;20058;-80
2023/06/27 09:49:16;;;;;;;1999.90;999.90;;;25.80;59.30;;;;;;5037412;28;20109;-80
2023/06/27 09:51:46;;;;;;;1999.90;999.90;;;25.70;58.10;;;;;;5036937;28;20510;-80
2023/06/27 09:54:12;;;;;;;1999.90;999.90;;;25.50;57.30;;;;;;5036767;28;20057;-80
2023/06/27 09:56:38;;;;;;;1999.90;999.90;;;25.40;58.00;;;;;;5036449;28;20037;-80
2023/06/27 09:59:11;;;;;;;1999.90;999.90;;;25.50;59.90;;;;;;5036313;28;20064;-81
2023/06/27 10:01:38;;;;;;;1999.90;999.90;;;25.10;58.90;;;;;;5037127;28;20034;-80
2023/06/27 10:04:04;;;;;;;1999.90;999.90;;;24.90;60.30;;;;;;5037531;28;20546;-80
2023/06/27 10:06:31;;;;;;;1999.90;999.90;;;25.60;58.70;;;;;;5035719;28;20061;-80
2023/06/27 10:08:57;;;;;;;1999.90;999.90;;;25.80;58.80;;;;;;5039324;28;20056;-80
2023/06/27 10:11:23;;;;;;;1999.90;999.90;;;26.10;58.20;;;;;;5036895;28;20041;-80
2023/06/27 10:13:49;;;;;;;1999.90;999.90;;;26.40;56.80;;;;;;5038374;28;20523;-80
2023/06/27 10:16:17;;;;;;;1999.90;999.90;;;26.30;58.10;;;;;;5039460;28;20642;-80
2023/06/27 10:18:43;;;;;;;1999.90;999.90;;;25.40;59.00;;;;;;5038555;28;20427;-80
2023/06/27 10:21:09;;;;;;;1999.90;999.90;;;25.10;59.80;;;;;;5037782;28;20088;-80
2023/06/27 10:23:37;;;;;;;1999.90;999.90;;;25.40;57.90;;;;;;5037801;28;20080;-80
2023/06/27 10:26:03;;;;;;;1999.90;999.90;;;25.60;58.10;;;;;;5035848;28;20165;-80
2023/06/27 10:28:32;;;;;;;1999.90;999.90;;;25.40;58.80;;;;;;5036794;28;20168;-81
2023/06/27 10:30:58;;;;;;;1999.90;999.90;;;25.60;59.00;;;;;;5036692;28;20040;-78
2023/06/27 10:33:28;;;;;;;1999.90;999.90;;;25.20;59.20;;;;;;5052579;28;20060;-81
2023/06/27 10:36:05;;;;;;;1999.90;999.90;;;25.60;59.90;;;;;;5036845;28;20041;-80
2023/06/27 10:38:38;;;;;;;1999.90;999.90;;;25.60;58.30;;;;;;5044266;28;20095;-80
2023/06/27 10:41:06;;;;;;;1999.90;999.90;;;25.70;59.20;;;;;;5040291;28;20486;-78
2023/06/27 10:43:48;;;;;;;1999.90;999.90;;;25.90;58.20;;;;;;5039813;28;20582;-78
2023/06/27 10:46:22;;;;;;;1999.90;999.90;;;26.00;58.70;;;;;;5034884;28;20570;-78
2023/06/27 10:48:55;;;;;;;1999.90;999.90;;;26.10;57.70;;;;;;5038260;28;20361;-76
2023/06/27 10:51:23;;;;;;;1999.90;999.90;;;25.80;58.90;;;;;;5054884;28;20037;-79
2023/06/27 10:54:07;;;;;;;1999.90;999.90;;;25.80;59.40;;;;;;5053176;28;20179;-79
2023/06/27 10:56:40;;;;;;;1999.90;999.90;;;25.70;59.30;;;;;;5054608;28;20092;-78
2023/06/27 10:59:09;;;;;;;1999.90;999.90;;;26.20;58.10;;;;;;5044544;28;20049;-79
2023/06/27 11:01:40;;;;;;;1999.90;999.90;;;26.60;58.20;;;;;;5039575;28;20502;-78
2023/06/27 11:04:19;;;;;;;1999.90;999.90;;;26.50;57.20;;;;;;5053547;28;20033;-79
2023/06/27 11:06:45;;;;;;;1999.90;999.90;;;26.60;56.70;;;;;;5054891;28;20418;-78
2023/06/27 11:09:18;;;;;;;1999.90;999.90;;;26.50;55.70;;;;;;5054414;28;20129;-80
2023/06/27 11:12:11;;;;;;;1999.90;999.90;;;26.10;56.90;;;;;;5057509;28;20851;-80
2023/06/27 11:14:41;;;;;;;1999.90;999.90;;;26.20;57.50;;;;;;5058934;28;20030;-81
2023/06/27 11:17:07;;;;;;;1999.90;999.90;;;25.80;56.60;;;;;;5056205;28;20037;-80
2023/06/27 11:19:35;;;;;;;1999.90;999.90;;;26.20;56.30;;;;;;5057214;28;20100;-80
2023/06/27 11:22:04;;;;;;;1999.90;999.90;;;26.30;56.40;;;;;;5058507;28;20040;-80
2023/06/27 11:24:30;;;;;;;1999.90;999.90;;;25.80;57.40;;;;;;5039721;28;20500;-77
2023/06/27 11:27:00;;;;;;;1999.90;999.90;;;26.00;59.10;;;;;;5038093;28;20499;-77
2023/06/27 11:29:26;;;;;;;1999.90;999.90;;;26.40;57.90;;;;;;5037505;28;20050;-77
2023/06/27 11:31:54;;;;;;;1999.90;999.90;;;26.50;56.90;;;;;;5051332;28;20021;-77
2023/06/27 11:34:20;;;;;;;1999.90;999.90;;;26.40;58.00;;;;;;5054638;28;20116;-77
2023/06/27 11:36:45;;;;;;;1999.90;999.90;;;26.00;57.60;;;;;;5054499;28;20491;-77
2023/06/27 11:39:15;;;;;;;1999.90;999.90;;;26.10;58.00;;;;;;5052539;28;20065;-77
2023/06/27 11:41:44;;;;;;;1999.90;999.90;;;26.10;58.20;;;;;;5034240;28;20034;-76
2023/06/27 11:44:11;;;;;;;1999.90;999.90;;;26.30;57.10;;;;;;5035965;28;20034;-78
2023/06/27 11:46:50;;;;;;;1999.90;999.90;;;26.30;57.00;;;;;;5048527;28;20097;-76
2023/06/27 11:49:20;;;;;;;1999.90;999.90;;;26.10;56.60;;;;;;5034115;28;20034;-76
2023/06/27 11:51:45;;;;;;;1999.90;999.90;;;26.30;58.50;;;;;;5033871;28;20129;-77
2023/06/27 11:54:11;;;;;;;1999.90;999.90;;;26.10;57.40;;;;;;5039540;28;20551;-77
2023/06/27 11:56:39;;;;;;;1999.90;999.90;;;26.00;57.20;;;;;;5034053;28;20074;-76
2023/06/27 11:59:06;;;;;;;1999.90;999.90;;;26.30;58.40;;;;;;5034169;28;20037;-78